createdAt,value
2022-08-09T00:00:04.222Z,24.89
2022-08-09T00:00:58.406Z,24.82
2022-08-09T00:01:57.497Z,24.76
2022-08-09T00:02:57.351Z,24.72
2022-08-09T00:04:10.182Z,24.71
2022-08-09T00:05:00.799Z,24.71
2022-08-09T00:06:17.933Z,24.74
2022-08-09T00:06:58.325Z,24.77
2022-08-09T00:07:57.285Z,24.81
2022-08-09T00:08:57.724Z,24.84
2022-08-09T00:09:57.327Z,24.88
2022-08-09T00:10:58.075Z,24.92
2022-08-09T00:12:03.062Z,24.95
2022-08-09T00:12:58.218Z,24.98
2022-08-09T00:13:57.246Z,25.00
2022-08-09T00:14:57.183Z,25.01
2022-08-09T00:15:58.864Z,25.02
2022-08-09T00:16:58.187Z,25.03
2022-08-09T00:18:05.078Z,25.05
2022-08-09T00:18:58.149Z,25.06
2022-08-09T00:19:57.189Z,25.07
2022-08-09T00:20:57.118Z,25.07
2022-08-09T00:21:57.245Z,25.04
2022-08-09T00:22:57.107Z,25.01
2022-08-09T00:24:00.003Z,24.97
2022-08-09T00:24:57.129Z,24.95
2022-08-09T00:25:57.048Z,24.94
2022-08-09T00:26:57.303Z,24.94
2022-08-09T00:27:57.018Z,24.94
2022-08-09T00:28:57.106Z,24.94
2022-08-09T00:30:23.648Z,24.94
2022-08-09T00:30:57.989Z,24.94
2022-08-09T00:32:00.807Z,24.93
2022-08-09T00:32:56.958Z,24.92
2022-08-09T00:33:57.039Z,24.90
2022-08-09T00:34:56.928Z,24.90
2022-08-09T00:35:56.996Z,24.89
2022-08-09T00:36:56.901Z,24.89
2022-08-09T00:37:56.910Z,24.88
2022-08-09T00:38:56.888Z,24.85
2022-08-09T00:40:14.160Z,24.82
2022-08-09T00:40:58.120Z,24.80
2022-08-09T00:44:10.517Z,24.78
2022-08-09T00:44:15.690Z,24.78
2022-08-09T00:44:16.792Z,24.78
2022-08-09T00:44:57.841Z,24.79
2022-08-09T00:45:56.867Z,24.80
2022-08-09T00:47:04.865Z,24.81
2022-08-09T00:47:57.762Z,24.83
2022-08-09T00:48:56.788Z,24.85
2022-08-09T00:49:56.918Z,24.88
2022-08-09T00:50:56.852Z,24.91
2022-08-09T00:51:56.712Z,24.93
2022-08-09T00:52:56.712Z,24.95
2022-08-09T00:53:56.691Z,24.97
2022-08-09T00:54:56.724Z,25.00
2022-08-09T00:56:04.842Z,25.02
2022-08-09T00:56:57.662Z,25.05
2022-08-09T00:57:59.374Z,25.06
2022-08-09T00:58:56.613Z,25.07
2022-08-09T00:59:56.662Z,25.08
2022-08-09T01:00:59.040Z,25.07
2022-08-09T01:01:56.691Z,25.05
2022-08-09T01:02:56.583Z,25.02
2022-08-09T01:03:56.585Z,25.00
2022-08-09T01:04:56.533Z,24.98
2022-08-09T01:05:56.597Z,24.97
2022-08-09T01:06:56.504Z,24.97
2022-08-09T01:07:59.984Z,24.97
2022-08-09T01:08:56.523Z,24.97
2022-08-09T01:09:57.553Z,24.96
2022-08-09T01:10:56.453Z,24.96
2022-08-09T01:11:56.541Z,24.95
2022-08-09T01:12:56.435Z,24.95
2022-08-09T01:14:00.076Z,24.94
2022-08-09T01:14:57.424Z,24.93
2022-08-09T01:15:56.472Z,24.92
2022-08-09T01:16:56.374Z,24.91
2022-08-09T01:17:57.780Z,24.90
2022-08-09T01:19:02.445Z,24.89
2022-08-09T01:20:02.431Z,24.88
2022-08-09T01:20:57.358Z,24.88
2022-08-09T01:21:56.415Z,24.87
2022-08-09T01:22:56.298Z,24.87
2022-08-09T01:24:01.903Z,24.89
2022-08-09T01:24:57.280Z,24.89
2022-08-09T01:25:56.344Z,24.90
2022-08-09T01:26:56.273Z,24.90
2022-08-09T01:27:57.929Z,24.88
2022-08-09T01:28:56.240Z,24.85
2022-08-09T01:29:56.791Z,24.81
2022-08-09T01:30:59.076Z,24.77
2022-08-09T01:32:29.845Z,24.74
2022-08-09T01:32:57.191Z,24.72
2022-08-09T01:33:56.197Z,24.71
2022-08-09T01:34:56.138Z,24.70
2022-08-09T01:35:56.206Z,24.71
2022-08-09T01:36:56.109Z,24.71
2022-08-09T01:38:09.654Z,24.73
2022-08-09T01:38:57.121Z,24.74
2022-08-09T01:39:56.131Z,24.74
2022-08-09T01:41:04.851Z,24.74
2022-08-09T01:42:01.431Z,24.74
2022-08-09T01:42:57.062Z,24.74
2022-08-09T01:43:56.117Z,24.75
2022-08-09T01:44:56.011Z,24.76
2022-08-09T01:45:57.961Z,24.75
2022-08-09T01:46:55.979Z,24.72
2022-08-09T01:47:55.994Z,24.69
2022-08-09T01:48:55.959Z,24.65
2022-08-09T01:49:57.080Z,24.57
2022-08-09T01:50:55.932Z,24.48
2022-08-09T01:51:56.990Z,24.39
2022-08-09T01:52:55.909Z,24.33
2022-08-09T01:53:57.998Z,24.29
2022-08-09T01:54:55.872Z,24.27
2022-08-09T01:55:56.541Z,24.27
2022-08-09T01:56:55.841Z,24.28
2022-08-09T01:57:55.872Z,24.31
2022-08-09T01:58:55.820Z,24.35
2022-08-09T01:59:59.952Z,24.39
2022-08-09T02:00:55.809Z,24.40
2022-08-09T02:02:00.248Z,24.40
2022-08-09T02:02:56.772Z,24.41
2022-08-09T02:03:55.873Z,24.44
2022-08-09T02:04:55.738Z,24.48
2022-08-09T02:06:04.094Z,24.53
2022-08-09T02:06:58.594Z,24.58
2022-08-09T02:08:40.715Z,24.64
2022-08-09T02:08:59.037Z,24.69
2022-08-09T02:09:59.766Z,24.74
2022-08-09T02:10:56.670Z,24.78
2022-08-09T02:11:57.810Z,24.82
2022-08-09T02:12:55.643Z,24.84
2022-08-09T02:14:26.212Z,24.85
2022-08-09T02:14:56.604Z,24.84
2022-08-09T02:15:56.703Z,24.81
2022-08-09T02:17:15.166Z,24.76
2022-08-09T02:18:01.630Z,24.71
2022-08-09T02:18:56.617Z,24.68
2022-08-09T02:19:55.534Z,24.67
2022-08-09T02:20:55.625Z,24.68
2022-08-09T02:21:55.923Z,24.70
2022-08-09T02:22:55.562Z,24.71
2022-08-09T02:23:56.552Z,24.71
2022-08-09T02:24:56.627Z,24.68
2022-08-09T02:25:55.823Z,24.63
2022-08-09T02:26:55.635Z,24.57
2022-08-09T02:28:00.377Z,24.52
2022-08-09T02:28:56.455Z,24.49
2022-08-09T02:29:56.562Z,24.49
2022-08-09T02:30:56.386Z,24.51
2022-08-09T02:31:56.496Z,24.54
2022-08-09T02:32:55.399Z,24.59
2022-08-09T02:34:06.675Z,24.64
2022-08-09T02:34:57.739Z,24.69
2022-08-09T02:36:16.424Z,24.73
2022-08-09T02:36:55.317Z,24.76
2022-08-09T02:37:55.378Z,24.79
2022-08-09T02:38:55.288Z,24.82
2022-08-09T02:40:01.709Z,24.84
2022-08-09T02:40:56.382Z,24.87
2022-08-09T02:41:56.410Z,24.88
2022-08-09T02:42:55.225Z,24.90
2022-08-09T02:43:55.665Z,24.90
2022-08-09T02:44:55.369Z,24.89
2022-08-09T02:45:55.208Z,24.88
2022-08-09T02:46:55.306Z,24.86
2022-08-09T02:47:59.355Z,24.85
2022-08-09T02:48:55.147Z,24.84
2022-08-09T02:50:01.310Z,24.83
2022-08-09T02:50:56.610Z,24.82
2022-08-09T02:51:55.239Z,24.81
2022-08-09T02:52:55.536Z,24.79
2022-08-09T02:55:20.175Z,24.23
2022-08-09T02:56:05.596Z,24.24
2022-08-09T02:57:13.701Z,24.46
2022-08-09T02:58:36.876Z,24.59
2022-08-09T02:59:05.410Z,24.67
2022-08-09T03:00:21.165Z,24.71
2022-08-09T03:01:06.325Z,24.74
2022-08-09T03:02:11.867Z,24.76
2022-08-09T03:03:04.389Z,24.78
2022-08-09T03:04:17.131Z,24.80
2022-08-09T03:05:05.690Z,24.82
2022-08-09T03:06:05.417Z,24.84
2022-08-09T03:07:12.171Z,24.86
2022-08-09T03:08:05.301Z,24.88
2022-08-09T03:09:05.418Z,24.89
2022-08-09T03:10:04.270Z,24.91
2022-08-09T03:11:05.359Z,24.90
2022-08-09T03:12:10.874Z,24.88
2022-08-09T03:13:08.631Z,24.84
2022-08-09T03:14:04.216Z,24.80
2022-08-09T03:15:04.304Z,24.76
2022-08-09T03:16:06.914Z,24.74
2022-08-09T03:17:05.587Z,24.73
2022-08-09T03:18:10.696Z,24.74
2022-08-09T03:19:05.816Z,24.75
2022-08-09T03:20:11.464Z,24.77
2022-08-09T03:21:05.123Z,24.80
2022-08-09T03:22:05.172Z,24.84
2022-08-09T03:23:14.584Z,24.87
2022-08-09T03:24:05.326Z,24.89
2022-08-09T03:25:21.478Z,24.91
2022-08-09T03:26:05.431Z,24.94
2022-08-09T03:27:04.032Z,24.97
2022-08-09T03:29:22.674Z,24.52
2022-08-09T03:30:29.482Z,24.53
2022-08-09T03:31:21.301Z,24.75
2022-08-09T03:33:27.005Z,24.52
2022-08-09T03:34:25.692Z,24.52
2022-08-09T03:35:44.278Z,24.73
2022-08-09T03:36:27.397Z,24.83
2022-08-09T03:37:55.958Z,24.86
2022-08-09T03:38:28.702Z,24.85
2022-08-09T03:39:28.640Z,24.83
2022-08-09T03:40:25.635Z,24.80
2022-08-09T03:41:29.989Z,24.78
2022-08-09T03:42:26.319Z,24.75
2022-08-09T03:43:25.574Z,24.73
2022-08-09T03:44:27.794Z,24.71
2022-08-09T03:46:04.113Z,24.71
2022-08-09T03:46:29.163Z,24.71
2022-08-09T03:47:24.522Z,24.73
2022-08-09T03:48:51.756Z,24.75
2022-08-09T03:49:25.499Z,24.77
2022-08-09T03:50:31.735Z,24.79
2022-08-09T03:51:44.011Z,24.82
2022-08-09T03:52:25.467Z,24.84
2022-08-09T03:53:24.445Z,24.85
2022-08-09T03:54:29.111Z,24.86
2022-08-09T03:55:24.415Z,24.87
2022-08-09T03:56:24.560Z,24.89
2022-08-09T03:57:24.386Z,24.89
2022-08-09T03:58:25.466Z,24.89
2022-08-09T03:59:27.274Z,24.89
2022-08-09T04:00:25.420Z,24.89
2022-08-09T04:01:24.950Z,24.84
2022-08-09T04:02:26.561Z,24.76
2022-08-09T04:03:35.432Z,24.69
2022-08-09T04:04:25.308Z,24.66
2022-08-09T04:05:27.320Z,24.64
2022-08-09T04:06:24.437Z,24.62
2022-08-09T04:07:24.248Z,24.61
2022-08-09T04:08:29.068Z,24.62
2022-08-09T04:09:47.846Z,24.63
2022-08-09T04:10:29.048Z,24.65
2022-08-09T04:11:25.208Z,24.67
2022-08-09T04:12:30.038Z,24.70
2022-08-09T04:13:44.743Z,24.74
2022-08-09T04:14:54.140Z,24.76
2022-08-09T04:15:51.949Z,24.79
2022-08-09T04:16:25.140Z,24.83
2022-08-09T04:17:24.279Z,24.86
2022-08-09T04:18:25.001Z,24.88
2022-08-09T04:19:30.401Z,24.90
2022-08-09T04:20:25.092Z,24.90
2022-08-09T04:21:24.200Z,24.89
2022-08-09T04:22:24.122Z,24.81
2022-08-09T04:23:24.321Z,24.71
2022-08-09T04:24:24.159Z,24.61
2022-08-09T04:25:24.018Z,24.49
2022-08-09T04:26:24.088Z,24.34
2022-08-09T04:27:24.011Z,24.22
2022-08-09T04:28:33.103Z,24.12
2022-08-09T04:29:24.961Z,24.03
2022-08-09T04:30:26.140Z,23.99
2022-08-09T04:31:26.438Z,23.96
2022-08-09T04:32:31.651Z,23.92
2022-08-09T04:33:28.694Z,23.92
2022-08-09T04:34:31.810Z,23.94
2022-08-09T04:35:24.892Z,24.01
2022-08-09T04:36:24.258Z,24.09
2022-08-09T04:37:24.041Z,24.16
2022-08-09T04:38:24.973Z,24.23
2022-08-09T04:39:23.863Z,24.29
2022-08-09T04:40:36.063Z,24.31
2022-08-09T04:41:32.942Z,24.30
2022-08-09T04:42:24.794Z,24.25
2022-08-09T04:43:25.249Z,24.18
2022-08-09T04:44:25.903Z,24.12
2022-08-09T04:45:23.774Z,24.07
2022-08-09T04:46:57.089Z,24.01
2022-08-09T04:47:24.935Z,23.96
2022-08-09T04:48:33.443Z,23.87
2022-08-09T04:49:40.401Z,23.82
2022-08-09T04:50:24.704Z,23.76
2022-08-09T04:51:24.805Z,23.68
2022-08-09T04:52:27.017Z,23.62
2022-08-09T04:53:23.645Z,23.57
2022-08-09T04:54:24.704Z,23.52
2022-08-09T04:55:23.626Z,23.50
2022-08-09T04:56:26.104Z,23.49
2022-08-09T04:57:24.417Z,23.52
2022-08-09T04:58:23.688Z,23.56
2022-08-09T04:59:23.566Z,23.55
2022-08-09T05:00:44.666Z,23.45
2022-08-09T05:01:23.555Z,23.32
2022-08-09T05:02:23.616Z,23.21
2022-08-09T05:03:41.227Z,23.12
2022-08-09T05:04:31.204Z,23.07
2022-08-09T05:05:32.402Z,23.08
2022-08-09T05:06:27.504Z,23.05
2022-08-09T05:07:23.585Z,22.90
2022-08-09T05:08:23.449Z,22.66
2022-08-09T05:09:23.428Z,22.37
2022-08-09T05:10:24.597Z,22.08
2022-08-09T05:11:23.430Z,21.81
2022-08-09T05:12:24.404Z,21.51
2022-08-09T05:13:23.567Z,21.16
2022-08-09T05:14:23.366Z,20.75
2022-08-09T05:15:38.597Z,20.40
2022-08-09T05:16:31.452Z,20.08
2022-08-09T05:18:39.293Z,19.81
2022-08-09T05:18:39.732Z,19.66
2022-08-09T05:19:25.719Z,19.55
2022-08-09T05:20:23.293Z,19.56
2022-08-09T05:21:29.838Z,19.58
2022-08-09T05:22:33.535Z,19.56
2022-08-09T05:23:54.378Z,19.37
2022-08-09T05:24:24.366Z,19.17
2022-08-09T05:25:23.239Z,18.97
2022-08-09T05:26:36.145Z,18.71
2022-08-09T05:27:24.218Z,18.51
2022-08-09T05:28:23.289Z,18.36
2022-08-09T05:29:24.499Z,18.23
2022-08-09T05:30:24.159Z,18.10
2022-08-09T05:31:37.094Z,18.01
2022-08-09T05:32:24.214Z,17.94
2022-08-09T05:33:26.421Z,17.91
2022-08-09T05:34:26.037Z,17.87
2022-08-09T05:35:24.098Z,17.81
2022-08-09T05:36:23.150Z,17.74
2022-08-09T05:37:24.122Z,17.67
2022-08-09T05:38:25.479Z,17.60
2022-08-09T05:39:28.854Z,17.55
2022-08-09T05:40:24.029Z,17.55
2022-08-09T05:41:23.090Z,17.54
2022-08-09T05:42:27.956Z,17.56
2022-08-09T05:43:23.981Z,17.62
2022-08-09T05:44:29.044Z,17.70
2022-08-09T05:45:24.853Z,17.79
2022-08-09T05:46:23.011Z,17.88
2022-08-09T05:47:23.236Z,17.90
2022-08-09T05:48:31.841Z,17.93
2022-08-09T05:50:24.489Z,17.97
2022-08-09T05:50:43.924Z,18.03
2022-08-09T05:51:42.394Z,18.03
2022-08-09T05:52:24.813Z,18.05
2022-08-09T05:53:31.642Z,18.11
2022-08-09T05:54:23.844Z,18.21
2022-08-09T05:55:24.110Z,18.35
2022-08-09T05:56:25.810Z,18.46
2022-08-09T05:57:25.153Z,18.55
2022-08-09T05:58:23.864Z,18.69
2022-08-09T05:59:22.772Z,18.74
2022-08-09T06:00:23.426Z,18.79
2022-08-09T06:01:22.755Z,18.85
2022-08-09T06:02:22.911Z,18.90
2022-08-09T06:03:22.772Z,18.93
2022-08-09T06:04:23.319Z,19.02
2022-08-09T06:05:50.028Z,19.11
2022-08-09T06:06:23.704Z,19.13
2022-08-09T06:07:22.663Z,19.18
2022-08-09T06:08:24.368Z,19.21
2022-08-09T06:09:23.043Z,19.25
2022-08-09T06:10:23.625Z,19.26
2022-08-09T06:11:40.523Z,19.29
2022-08-09T06:12:26.352Z,19.27
2022-08-09T06:13:22.612Z,19.19
2022-08-09T06:14:23.635Z,19.15
2022-08-09T06:15:22.653Z,19.21
2022-08-09T06:16:22.556Z,19.43
2022-08-09T06:17:22.723Z,19.65
2022-08-09T06:18:25.110Z,19.87
2022-08-09T06:19:22.616Z,20.13
2022-08-09T06:20:22.524Z,20.34
2022-08-09T06:21:22.601Z,20.51
2022-08-09T06:22:28.945Z,20.65
2022-08-09T06:23:23.463Z,20.75
2022-08-09T06:24:23.464Z,20.83
2022-08-09T06:25:22.576Z,20.97
2022-08-09T06:26:22.742Z,21.09
2022-08-09T06:27:23.406Z,21.24
2022-08-09T06:28:22.566Z,21.38
2022-08-09T06:29:23.374Z,21.45
2022-08-09T06:30:22.555Z,21.47
2022-08-09T06:31:31.301Z,21.59
2022-08-09T06:32:59.134Z,21.79
2022-08-09T06:33:39.939Z,22.03
2022-08-09T06:34:26.040Z,22.29
2022-08-09T06:35:22.315Z,22.55
2022-08-09T06:36:27.286Z,22.80
2022-08-09T06:37:23.274Z,23.02
2022-08-09T06:38:31.974Z,23.12
2022-08-09T06:39:23.286Z,23.13
2022-08-09T06:40:24.456Z,22.98
2022-08-09T06:41:22.348Z,22.73
2022-08-09T06:42:25.008Z,22.46
2022-08-09T06:43:23.187Z,22.18
2022-08-09T06:44:23.738Z,21.97
2022-08-09T06:46:05.548Z,21.82
2022-08-09T06:46:39.836Z,21.81
2022-08-09T06:47:23.709Z,21.92
2022-08-09T06:48:26.184Z,22.10
2022-08-09T06:49:44.593Z,22.24
2022-08-09T06:50:23.107Z,22.28
2022-08-09T06:51:22.088Z,22.26
2022-08-09T06:52:25.107Z,22.09
2022-08-09T06:53:22.068Z,21.87
2022-08-09T06:54:22.179Z,21.66
2022-08-09T06:55:23.315Z,21.50
2022-08-09T06:56:30.648Z,21.37
2022-08-09T06:57:25.799Z,21.35
2022-08-09T07:00:46.445Z,21.43
2022-08-09T07:00:50.757Z,21.90
2022-08-09T07:00:51.956Z,21.63
2022-08-09T07:01:24.119Z,22.15
2022-08-09T07:02:22.009Z,22.31
2022-08-09T07:03:26.899Z,22.44
2022-08-09T07:04:22.918Z,22.53
2022-08-09T07:05:22.058Z,22.60
2022-08-09T07:06:21.885Z,22.69
2022-08-09T07:07:59.124Z,22.72
2022-08-09T07:08:22.872Z,22.67
2022-08-09T07:09:55.012Z,22.49
2022-08-09T07:10:31.361Z,22.35
2022-08-09T07:11:25.202Z,22.20
2022-08-09T07:12:21.969Z,22.02
2022-08-09T07:13:28.172Z,21.89
2022-08-09T07:14:26.695Z,21.75
2022-08-09T07:15:53.724Z,21.57
2022-08-09T07:16:42.296Z,21.38
2022-08-09T07:17:22.740Z,21.16
2022-08-09T07:18:21.859Z,21.00
2022-08-09T07:19:23.621Z,21.00
2022-08-09T07:20:22.814Z,21.08
2022-08-09T07:21:21.741Z,21.03
2022-08-09T07:22:34.357Z,21.05
2022-08-09T07:23:22.779Z,21.12
2022-08-09T07:24:21.763Z,21.21
2022-08-09T07:25:22.644Z,21.28
2022-08-09T07:26:21.692Z,21.39
2022-08-09T07:27:26.407Z,21.54
2022-08-09T07:28:28.124Z,21.77
2022-08-09T07:29:22.609Z,22.03
2022-08-09T07:30:24.636Z,22.27
2022-08-09T07:31:21.570Z,22.48
2022-08-09T07:32:22.992Z,22.62
2022-08-09T07:33:23.214Z,22.74
2022-08-09T07:34:21.653Z,22.87
2022-08-09T07:35:21.503Z,22.97
2022-08-09T07:36:22.053Z,23.07
2022-08-09T07:37:22.027Z,23.16
2022-08-09T07:38:21.614Z,23.24
2022-08-09T07:39:40.269Z,23.35
2022-08-09T07:40:26.935Z,23.47
2022-08-09T07:41:22.425Z,23.56
2022-08-09T07:42:21.586Z,23.64
2022-08-09T07:43:22.444Z,23.72
2022-08-09T07:44:24.002Z,23.75
2022-08-09T07:45:23.663Z,23.79
2022-08-09T07:46:22.371Z,23.86
2022-08-09T07:47:23.209Z,23.92
2022-08-09T07:48:25.502Z,23.96
2022-08-09T07:49:22.374Z,24.03
2022-08-09T07:50:21.536Z,24.09
2022-08-09T07:52:04.277Z,24.15
2022-08-09T07:52:22.285Z,24.22
2022-08-09T07:53:36.553Z,24.29
2022-08-09T07:54:27.895Z,24.32
2022-08-09T07:55:22.256Z,24.30
2022-08-09T07:56:26.815Z,24.27
2022-08-09T07:57:22.217Z,24.26
2022-08-09T07:58:26.140Z,24.27
2022-08-09T07:59:34.663Z,24.30
2022-08-09T08:00:35.728Z,24.37
2022-08-09T08:01:22.217Z,24.42
2022-08-09T08:02:22.229Z,24.46
2022-08-09T08:03:21.305Z,24.49
2022-08-09T08:04:31.289Z,24.52
2022-08-09T08:05:22.096Z,24.55
2022-08-09T08:06:21.439Z,24.56
2022-08-09T08:08:44.385Z,24.54
2022-08-09T08:09:00.564Z,24.55
2022-08-09T08:09:35.533Z,24.57
2022-08-09T08:10:22.037Z,24.58
2022-08-09T08:12:23.941Z,24.58
2022-08-09T08:12:28.236Z,24.60
2022-08-09T08:13:22.040Z,24.61
2022-08-09T08:15:30.530Z,23.89
2022-08-09T08:16:32.450Z,23.89
2022-08-09T08:17:52.067Z,24.08
2022-08-09T08:18:31.320Z,24.17
2022-08-09T08:19:31.406Z,24.21
2022-08-09T08:20:33.034Z,24.27
2022-08-09T08:21:30.296Z,24.33
2022-08-09T08:22:30.522Z,24.38
2022-08-09T08:23:30.298Z,24.42
2022-08-09T08:24:34.189Z,24.47
2022-08-09T08:25:44.185Z,24.51
2022-08-09T08:26:54.881Z,24.54
2022-08-09T08:27:40.530Z,24.57
2022-08-09T08:28:34.931Z,24.62
2022-08-09T08:29:39.189Z,24.68
2022-08-09T08:30:31.204Z,24.73
2022-08-09T08:32:02.467Z,24.78
2022-08-09T08:32:33.450Z,24.80
2022-08-09T08:33:49.512Z,24.79
2022-08-09T08:34:31.180Z,24.77
2022-08-09T08:35:37.074Z,24.76
2022-08-09T08:36:31.206Z,24.76
2022-08-09T08:37:41.931Z,24.77
2022-08-09T08:38:31.398Z,24.76
2022-08-09T08:39:38.187Z,24.73
2022-08-09T08:40:31.023Z,24.72
2022-08-09T08:41:50.591Z,24.75
2022-08-09T08:42:31.984Z,24.79
2022-08-09T08:43:30.045Z,24.82
2022-08-09T08:44:30.173Z,24.87
2022-08-09T08:45:37.339Z,24.91
2022-08-09T08:46:33.456Z,24.96
2022-08-09T08:47:31.003Z,25.00
2022-08-09T08:48:31.185Z,25.03
2022-08-09T08:49:38.381Z,25.05
2022-08-09T08:50:30.962Z,25.06
2022-08-09T08:51:41.606Z,25.03
2022-08-09T08:53:37.040Z,24.93
2022-08-09T08:54:30.947Z,24.87
2022-08-09T08:55:29.814Z,24.85
2022-08-09T08:56:29.834Z,24.86
2022-08-09T08:57:29.783Z,24.87
2022-08-09T08:58:30.795Z,24.85
2022-08-09T08:59:44.766Z,24.85
2022-08-09T09:00:34.402Z,24.85
2022-08-09T09:01:35.399Z,24.84
2022-08-09T09:02:31.946Z,24.82
2022-08-09T09:03:33.251Z,24.81
2022-08-09T09:04:31.390Z,24.79
2022-08-09T09:05:57.550Z,24.79
2022-08-09T09:06:30.665Z,24.81
2022-08-09T09:07:29.695Z,24.85
2022-08-09T09:08:31.873Z,24.89
2022-08-09T09:09:58.668Z,24.87
2022-08-09T09:10:30.637Z,24.82
2022-08-09T09:11:29.949Z,24.73
2022-08-09T09:12:29.586Z,24.66
2022-08-09T09:13:56.526Z,24.59
2022-08-09T09:14:30.571Z,24.56
2022-08-09T09:15:29.656Z,24.54
2022-08-09T09:16:30.557Z,24.53
2022-08-09T09:17:48.689Z,24.55
2022-08-09T09:18:30.538Z,24.60
2022-08-09T09:19:40.900Z,24.66
2022-08-09T09:20:30.480Z,24.73
2022-08-09T09:21:29.487Z,24.81
2022-08-09T09:22:30.525Z,24.89
2022-08-09T09:23:37.754Z,24.96
2022-08-09T09:24:30.456Z,25.00
2022-08-09T09:26:03.525Z,24.92
2022-08-09T09:26:30.454Z,24.81
2022-08-09T09:28:05.669Z,24.70
2022-08-09T09:28:39.135Z,24.58
2022-08-09T09:29:40.982Z,24.47
2022-08-09T09:30:40.527Z,24.42
2022-08-09T09:32:06.581Z,24.45
2022-08-09T09:32:34.729Z,24.50
2022-08-09T09:33:30.426Z,24.58
2022-08-09T09:34:30.410Z,24.66
2022-08-09T09:35:29.290Z,24.70
2022-08-09T09:36:29.290Z,24.70
2022-08-09T09:37:31.961Z,24.68
2022-08-09T09:38:37.042Z,24.67
2022-08-09T09:39:54.876Z,24.70
2022-08-09T09:40:30.292Z,24.75
2022-08-09T09:41:33.125Z,24.82
2022-08-09T09:42:31.516Z,24.88
2022-08-09T09:43:29.202Z,24.94
2022-08-09T09:44:31.833Z,24.99
2022-08-09T09:45:29.704Z,25.02
2022-08-09T09:46:53.492Z,25.03
2022-08-09T09:47:29.123Z,25.01
2022-08-09T09:48:29.180Z,24.96
2022-08-09T09:49:55.994Z,24.88
2022-08-09T09:50:30.084Z,24.80
2022-08-09T09:51:38.380Z,24.75
2022-08-09T09:52:36.707Z,24.73
2022-08-09T09:53:43.646Z,24.73
2022-08-09T09:54:30.035Z,24.73
2022-08-09T09:55:33.060Z,24.74
2022-08-09T09:56:31.589Z,24.74
2022-08-09T09:58:04.023Z,24.74
2022-08-09T09:58:30.009Z,24.73
2022-08-09T09:59:29.379Z,24.74
2022-08-09T10:00:29.960Z,24.71
2022-08-09T10:01:37.548Z,24.69
2022-08-09T10:02:29.942Z,24.66
2022-08-09T10:03:30.127Z,24.65
2022-08-09T10:04:30.760Z,24.66
2022-08-09T10:06:03.924Z,24.68
2022-08-09T10:06:32.246Z,24.72
2022-08-09T10:07:29.974Z,24.78
2022-08-09T10:08:28.916Z,24.84
2022-08-09T10:09:28.876Z,24.89
2022-08-09T10:10:29.978Z,24.94
2022-08-09T10:11:59.443Z,24.98
2022-08-09T10:12:31.417Z,25.01
2022-08-09T10:13:44.985Z,25.00
2022-08-09T10:14:32.961Z,24.97
2022-08-09T10:16:08.904Z,24.93
2022-08-09T10:16:56.644Z,24.92
2022-08-09T10:17:50.631Z,24.93
2022-08-09T10:18:30.898Z,24.95
2022-08-09T10:19:28.734Z,24.96
2022-08-09T10:20:33.021Z,24.96
2022-08-09T10:21:29.777Z,24.96
2022-08-09T10:22:32.688Z,24.97
2022-08-09T10:23:30.111Z,24.97
2022-08-09T10:24:35.567Z,24.98
2022-08-09T10:25:34.837Z,24.97
2022-08-09T10:26:29.682Z,24.96
2022-08-09T10:27:34.689Z,24.95
2022-08-09T10:28:30.630Z,24.95
2022-08-09T10:30:23.560Z,24.92
2022-08-09T10:32:42.204Z,24.89
2022-08-09T10:34:08.704Z,24.91
2022-08-09T10:34:33.956Z,24.95
2022-08-09T10:35:29.705Z,25.00
2022-08-09T10:36:29.754Z,25.05
2022-08-09T10:37:28.504Z,25.08
2022-08-09T10:38:54.476Z,25.10
2022-08-09T10:39:29.622Z,25.11
2022-08-09T10:40:33.227Z,25.12
2022-08-09T10:41:29.465Z,25.15
2022-08-09T10:42:29.616Z,25.16
2022-08-09T10:43:36.194Z,25.18
2022-08-09T10:44:29.443Z,25.19
2022-08-09T10:45:31.722Z,25.20
2022-08-09T10:46:28.448Z,25.21
2022-08-09T10:48:20.215Z,25.23
2022-08-09T10:48:30.431Z,25.22
2022-08-09T10:49:50.899Z,25.20
2022-08-09T10:50:31.455Z,25.19
2022-08-09T10:51:29.570Z,25.19
2022-08-09T10:52:28.297Z,25.20
2022-08-09T10:53:31.972Z,25.22
2022-08-09T10:54:28.264Z,25.24
2022-08-09T10:55:28.333Z,25.25
2022-08-09T10:56:28.233Z,25.28
2022-08-09T10:57:28.244Z,25.33
2022-08-09T10:58:28.204Z,25.38
2022-08-09T10:59:31.235Z,25.42
2022-08-09T11:00:28.213Z,25.45
2022-08-09T11:03:13.388Z,25.48
2022-08-09T11:03:15.241Z,25.45
2022-08-09T11:03:53.747Z,25.50
2022-08-09T11:04:31.368Z,25.52
2022-08-09T11:05:30.547Z,25.54
2022-08-09T11:06:28.117Z,25.55
2022-08-09T11:07:56.827Z,25.55
2022-08-09T11:08:30.039Z,25.54
2022-08-09T11:09:28.067Z,25.54
2022-08-09T11:10:29.377Z,25.54
2022-08-09T11:11:28.100Z,25.54
2022-08-09T11:12:29.976Z,25.56
2022-08-09T11:13:50.995Z,25.58
2022-08-09T11:14:32.014Z,25.60
2022-08-09T11:15:33.644Z,25.61
2022-08-09T11:16:33.500Z,25.61
2022-08-09T11:17:31.172Z,25.64
2022-08-09T11:18:29.048Z,25.67
2022-08-09T11:20:12.208Z,25.71
2022-08-09T11:20:29.078Z,25.77
2022-08-09T11:21:27.997Z,25.84
2022-08-09T11:22:29.061Z,25.91
2022-08-09T11:23:30.114Z,25.98
2022-08-09T11:24:27.858Z,26.03
2022-08-09T11:25:47.124Z,26.06
2022-08-09T11:26:28.988Z,26.07
2022-08-09T11:28:02.940Z,26.08
2022-08-09T11:28:33.954Z,26.09
2022-08-09T11:30:04.303Z,26.12
2022-08-09T11:30:32.381Z,26.14
2022-08-09T11:31:33.959Z,26.13
2022-08-09T11:32:28.750Z,26.11
2022-08-09T11:33:28.021Z,26.11
2022-08-09T11:34:27.763Z,26.14
2022-08-09T11:35:35.247Z,26.15
2022-08-09T11:36:35.510Z,26.16
2022-08-09T11:37:40.595Z,26.14
2022-08-09T11:38:33.278Z,26.13
2022-08-09T11:39:38.186Z,26.12
2022-08-09T11:40:28.662Z,26.10
2022-08-09T11:41:27.753Z,26.13
2022-08-09T11:42:28.633Z,26.15
2022-08-09T11:43:32.103Z,26.16
2022-08-09T11:44:27.593Z,26.15
2022-08-09T11:45:42.119Z,26.14
2022-08-09T11:46:33.623Z,26.13
2022-08-09T11:47:28.570Z,26.12
2022-08-09T11:48:28.542Z,26.11
2022-08-09T11:49:28.645Z,26.12
2022-08-09T11:50:53.114Z,26.14
2022-08-09T11:53:00.869Z,26.19
2022-08-09T11:53:03.529Z,26.16
2022-08-09T11:53:59.037Z,26.19
2022-08-09T11:54:33.366Z,26.17
2022-08-09T11:55:35.137Z,26.15
2022-08-09T11:56:34.377Z,26.12
2022-08-09T11:58:00.165Z,26.10
2022-08-09T11:58:32.750Z,26.09
2022-08-09T11:59:30.422Z,26.13
2022-08-09T12:00:28.370Z,26.17
2022-08-09T12:02:18.086Z,26.23
2022-08-09T12:02:37.222Z,26.29
2022-08-09T12:03:55.665Z,26.39
2022-08-09T12:04:32.227Z,26.55
2022-08-09T12:05:28.348Z,26.79
2022-08-09T12:06:32.705Z,27.02
2022-08-09T12:07:28.282Z,27.19
2022-08-09T12:08:28.302Z,27.33
2022-08-09T12:09:27.359Z,27.47
2022-08-09T12:10:39.590Z,27.60
2022-08-09T12:11:28.228Z,27.72
2022-08-09T12:12:38.408Z,27.80
2022-08-09T12:14:07.133Z,27.85
2022-08-09T12:14:28.702Z,27.91
2022-08-09T12:15:48.866Z,27.93
2022-08-09T12:16:38.462Z,27.94
2022-08-09T12:17:42.949Z,27.93
2022-08-09T12:18:30.165Z,27.92
2022-08-09T12:19:27.209Z,27.92
2022-08-09T12:20:27.250Z,27.92
2022-08-09T12:21:51.385Z,27.90
2022-08-09T12:22:27.114Z,27.86
2022-08-09T12:23:56.553Z,27.83
2022-08-09T12:24:28.219Z,27.83
2022-08-09T12:25:36.606Z,27.86
2022-08-09T12:26:28.060Z,27.92
2022-08-09T12:29:10.893Z,28.01
2022-08-09T12:29:14.241Z,28.12
2022-08-09T12:29:32.885Z,28.22
2022-08-09T12:30:36.912Z,28.34
2022-08-09T12:31:57.991Z,28.48
2022-08-09T12:32:27.962Z,28.59
2022-08-09T12:33:51.195Z,28.66
2022-08-09T12:34:27.931Z,28.72
2022-08-09T12:35:27.012Z,28.73
2022-08-09T12:36:31.819Z,28.73
2022-08-09T12:37:29.257Z,28.71
2022-08-09T12:38:47.932Z,28.69
2022-08-09T12:39:27.492Z,28.70
2022-08-09T12:40:26.966Z,28.72
2022-08-09T12:41:26.855Z,28.74
2022-08-09T12:42:26.891Z,28.78
2022-08-09T12:44:06.554Z,28.81
2022-08-09T12:44:27.818Z,28.83
2022-08-09T12:45:34.266Z,28.85
2022-08-09T12:46:27.787Z,28.84
2022-08-09T12:47:26.795Z,28.80
2022-08-09T12:48:33.814Z,28.75
2022-08-09T12:49:28.288Z,28.70
2022-08-09T12:50:28.570Z,28.65
2022-08-09T12:51:52.235Z,28.61
2022-08-09T12:52:42.817Z,28.61
2022-08-09T12:53:36.671Z,28.66
2022-08-09T12:54:27.777Z,28.68
2022-08-09T12:56:14.243Z,28.68
2022-08-09T12:56:34.905Z,28.66
2022-08-09T12:57:27.647Z,28.56
2022-08-09T12:58:28.598Z,28.33
2022-08-09T12:59:58.014Z,28.07